Time;durP1;ratioP1;P1;durP2;ratioP2;P2;SDS_P1;SDS_P2;PMS_P1;PMS_P2;Temp;Humidity;BMP_temperature;BMP_pressure;BME280_temperature;BME280_humidity;BME280_pressure;Samples;Min_cycle;Max_cycle;Signal;HPM_P1;HPM_P2
2021/12/29 00:00:14;;;;;;;15.25;10.07;;;;;;;9.29;65.34;100852.59;5036694;27;102710;-53
2021/12/29 00:02:41;;;;;;;13.50;9.68;;;;;;;9.29;65.13;100847.16;5042925;27;103252;-53
2021/12/29 00:05:12;;;;;;;13.50;9.93;;;;;;;9.30;65.30;100847.97;5027842;27;102056;-53
2021/12/29 00:07:39;;;;;;;12.80;9.25;;;;;;;9.28;65.58;100861.03;5041848;27;102744;-52
2021/12/29 00:10:08;;;;;;;13.05;9.13;;;;;;;9.28;65.71;100867.28;5017893;27;104299;-52
2021/12/29 00:12:40;;;;;;;13.10;9.25;;;;;;;9.28;65.32;100861.84;5040169;27;103704;-53
2021/12/29 00:15:10;;;;;;;13.25;9.40;;;;;;;9.28;65.61;100867.28;5029767;27;102745;-53
2021/12/29 00:17:39;;;;;;;14.35;9.45;;;;;;;9.27;65.92;100862.94;5036296;27;106465;-53
2021/12/29 00:20:07;;;;;;;14.68;9.63;;;;;;;9.28;65.45;100869.97;5040853;27;102768;-52
2021/12/29 00:22:34;;;;;;;14.75;9.32;;;;;;;9.28;65.47;100888.19;5033909;27;102271;-53
2021/12/29 00:25:01;;;;;;;13.45;9.25;;;;;;;9.28;65.85;100894.44;5039163;27;102078;-53
2021/12/29 00:27:27;;;;;;;13.30;9.07;;;;;;;9.28;65.42;100877.31;5040225;27;103477;-53
2021/12/29 00:29:54;;;;;;;13.75;9.55;;;;;;;9.27;65.55;100872.97;5039275;27;103846;-53
2021/12/29 00:32:22;;;;;;;12.18;8.55;;;;;;;9.26;65.33;100891.13;5037355;27;103483;-53
2021/12/29 00:34:48;;;;;;;12.70;8.68;;;;;;;9.27;65.99;100892.78;5034041;27;102904;-53
2021/12/29 00:37:14;;;;;;;11.45;8.60;;;;;;;9.27;65.82;100879.22;5036868;27;104245;-53
2021/12/29 00:39:41;;;;;;;13.60;9.00;;;;;;;9.27;65.53;100875.69;5042638;27;103972;-53
2021/12/29 00:42:07;;;;;;;14.50;9.65;;;;;;;9.27;65.92;100886.56;5042261;27;102155;-52
2021/12/29 00:44:39;;;;;;;11.75;9.02;;;;;;;9.27;65.49;100903.66;5033322;27;103643;-52
2021/12/29 00:47:05;;;;;;;13.63;9.48;;;;;;;9.27;65.81;100903.66;5045335;27;103867;-52
2021/12/29 00:49:35;;;;;;;14.57;9.55;;;;;;;9.26;65.77;100907.44;5041328;27;104094;-53
2021/12/29 00:52:06;;;;;;;12.38;9.05;;;;;;;9.27;65.48;100908.28;5044495;27;103506;-52
2021/12/29 00:54:35;;;;;;;11.90;8.68;;;;;;;9.27;65.58;100911.81;5046162;27;102429;-53
2021/12/29 00:57:02;;;;;;;12.52;9.30;;;;;;;9.27;65.11;100909.09;5045476;27;104074;-53
2021/12/29 00:59:29;;;;;;;12.50;8.77;;;;;;;9.28;65.16;100916.16;5041025;27;104295;-53
2021/12/29 01:01:56;;;;;;;13.07;8.88;;;;;;;9.27;65.94;100908.28;5035845;27;102168;-53
2021/12/29 01:04:23;;;;;;;13.05;9.20;;;;;;;9.27;65.87;100903.66;5046364;27;102205;-52
2021/12/29 01:06:52;;;;;;;13.43;9.10;;;;;;;9.27;65.26;100898.22;5038545;27;102366;-53
2021/12/29 01:09:19;;;;;;;13.05;8.73;;;;;;;9.27;65.36;100903.66;5041622;27;103916;-53
2021/12/29 01:11:45;;;;;;;13.10;9.02;;;;;;;9.26;65.86;100896.56;5046772;27;102609;-53
2021/12/29 01:14:12;;;;;;;13.48;8.75;;;;;;;9.28;65.31;100896.31;5043424;27;102696;-53
2021/12/29 01:16:39;;;;;;;12.57;9.13;;;;;;;9.26;65.79;100899.28;5036691;27;102721;-53
2021/12/29 01:19:16;;;;;;;12.30;9.38;;;;;;;9.27;65.12;100898.22;5037382;27;104287;-53
2021/12/29 01:21:45;;;;;;;15.40;9.18;;;;;;;9.26;65.81;100907.44;5019681;27;102640;-53
2021/12/29 01:24:13;;;;;;;;;;;;;;;9.26;65.80;100906.63;5042468;27;102681;-52
2021/12/29 01:26:43;;;;;;;11.82;9.15;;;;;;;9.26;65.10;100904.72;5037933;27;102356;-53
2021/12/29 01:29:10;;;;;;;12.57;8.90;;;;;;;9.27;65.93;100914.53;5037462;27;104123;-53
2021/12/29 01:31:45;;;;;;;12.50;8.70;;;;;;;9.28;65.96;100915.34;5038018;27;102606;-52
2021/12/29 01:34:13;;;;;;;13.63;8.95;;;;;;;9.27;65.42;100911.81;5040504;27;102324;-53
2021/12/29 01:36:41;;;;;;;12.65;9.18;;;;;;;9.27;65.45;100903.66;5037591;27;102474;-53
2021/12/29 01:39:10;;;;;;;12.30;8.95;;;;;;;9.27;65.43;100908.28;5036960;27;104016;-53
2021/12/29 01:41:38;;;;;;;11.48;8.90;;;;;;;9.26;65.88;100902.00;5036096;27;102631;-53
2021/12/29 01:44:06;;;;;;;12.52;9.48;;;;;;;9.27;65.14;100905.56;5041262;27;105582;-53
2021/12/29 01:46:33;;;;;;;12.53;8.77;;;;;;;9.27;65.79;100902.84;5044176;27;102242;-53
2021/12/29 01:48:59;;;;;;;13.77;9.00;;;;;;;9.27;65.24;100902.84;5045008;27;103999;-52
2021/12/29 01:51:26;;;;;;;11.98;9.02;;;;;;;9.27;65.64;100892.78;5025696;27;104077;-52
2021/12/29 01:54:16;;;;;;;11.57;8.98;;;;;;;9.27;66.06;100891.97;5042928;27;102192;-53
2021/12/29 01:56:45;;;;;;;12.45;9.25;;;;;;;9.27;66.01;100881.13;5037346;27;103592;-53
2021/12/29 01:59:13;;;;;;;11.70;8.85;;;;;;;9.27;65.74;100887.38;5037481;27;103885;-54
2021/12/29 02:01:41;;;;;;;10.82;8.02;;;;;;;9.27;65.72;100886.56;5045683;27;102842;-53
2021/12/29 02:04:07;;;;;;;12.32;9.15;;;;;;;9.27;65.17;100890.09;5039892;27;102892;-53
2021/12/29 02:06:36;;;;;;;11.13;8.63;;;;;;;9.27;65.71;100889.28;5009233;27;102305;-53
2021/12/29 02:09:03;;;;;;;11.80;8.50;;;;;;;9.26;65.58;100891.13;5036276;27;103983;-53
2021/12/29 02:11:32;;;;;;;12.03;8.27;;;;;;;9.26;65.42;100893.84;5043275;27;102293;-53
2021/12/29 02:14:07;;;;;;;13.15;9.00;;;;;;;9.26;65.63;100896.56;5040186;27;102602;-52
2021/12/29 02:16:34;;;;;;;11.98;8.55;;;;;;;9.27;65.25;100905.56;5045625;27;102919;-52
2021/12/29 02:19:03;;;;;;;11.73;8.93;;;;;;;9.26;65.15;100902.00;5049910;27;103865;-53
2021/12/29 02:21:32;;;;;;;10.70;8.68;;;;;;;9.27;65.71;100900.94;5039217;27;102206;-53
2021/12/29 02:26:38;;;;;;;13.70;9.20;;;;;;;9.27;66.01;100894.69;5040217;27;104750;-53
2021/12/29 02:29:06;;;;;;;10.90;8.48;;;;;;;9.27;65.47;100887.38;5038563;27;105281;-53
2021/12/29 02:31:33;;;;;;;12.63;9.37;;;;;;;9.26;65.14;100874.84;5043911;27;102250;-53
2021/12/29 02:34:00;;;;;;;14.15;9.20;;;;;;;9.28;65.75;100889.00;5041354;27;102532;-53
2021/12/29 02:36:30;;;;;;;10.00;8.52;;;;;;;9.26;65.66;100880.28;5039562;27;102303;-53
2021/12/29 02:38:57;;;;;;;11.75;9.02;;;;;;;9.28;65.83;100871.88;5046573;27;104049;-53
2021/12/29 02:41:25;;;;;;;10.77;8.75;;;;;;;9.27;65.52;100873.78;5047516;27;102254;-52
2021/12/29 02:43:59;;;;;;;13.48;9.10;;;;;;;9.27;65.86;100870.25;5049033;27;103874;-53
2021/12/29 02:46:28;;;;;;;14.13;9.15;;;;;;;9.27;65.53;100876.50;5045113;27;103609;-53
2021/12/29 02:49:02;;;;;;;13.90;9.02;;;;;;;9.27;65.40;100876.50;5051242;27;104365;-52
2021/12/29 02:51:32;;;;;;;11.07;8.85;;;;;;;9.27;65.79;100870.25;5045853;27;103824;-53
2021/12/29 02:53:59;;;;;;;10.82;8.75;;;;;;;9.28;65.17;100867.28;5043427;27;102128;-53
2021/12/29 02:56:27;;;;;;;12.05;9.23;;;;;;;9.26;66.06;100874.84;5052649;27;102241;-53
2021/12/29 02:58:54;;;;;;;11.93;8.65;;;;;;;9.26;66.08;100871.31;5044501;27;103945;-53
2021/12/29 03:01:21;;;;;;;11.45;8.55;;;;;;;9.27;65.81;100873.78;5039587;27;102615;-53
2021/12/29 03:03:47;;;;;;;11.20;8.73;;;;;;;9.27;66.12;100886.56;5047042;27;102555;-53
2021/12/29 03:06:14;;;;;;;12.35;9.18;;;;;;;9.27;65.98;100881.94;5050776;27;102404;-53
2021/12/29 03:08:42;;;;;;;10.45;8.70;;;;;;;9.26;66.06;100884.88;5046760;27;103927;-53
2021/12/29 03:11:09;;;;;;;11.90;9.05;;;;;;;9.26;65.58;100884.88;5043942;27;103868;-53
2021/12/29 03:13:40;;;;;;;10.82;8.45;;;;;;;9.26;65.95;100891.13;5049193;27;102199;-53
2021/12/29 03:16:08;;;;;;;11.05;8.80;;;;;;;9.26;65.41;100885.69;5052595;27;102258;-52
2021/12/29 03:18:35;;;;;;;13.68;9.55;;;;;;;9.26;65.78;100902.00;5050024;27;103935;-53
2021/12/29 03:21:04;;;;;;;10.32;8.25;;;;;;;9.27;65.39;100903.66;5047364;27;102620;-53
2021/12/29 03:23:31;;;;;;;11.63;8.73;;;;;;;9.27;66.04;100897.41;5025004;27;103651;-53
2021/12/29 03:25:59;;;;;;;11.70;8.13;;;;;;;9.27;65.74;100898.22;5055358;27;104005;-53
2021/12/29 03:28:26;;;;;;;12.77;8.82;;;;;;;9.26;65.88;100910.16;5045940;27;103912;-53
2021/12/29 03:30:54;;;;;;;11.77;9.43;;;;;;;9.26;65.33;100904.72;5051986;27;102089;-53
2021/12/29 03:33:24;;;;;;;11.32;8.60;;;;;;;9.26;65.45;100907.44;5043398;27;104041;-53
2021/12/29 03:35:53;;;;;;;11.35;8.57;;;;;;;9.27;65.41;100902.84;5028875;27;102696;-53
2021/12/29 03:38:22;;;;;;;10.75;8.98;;;;;;;9.27;65.14;100897.41;5041158;27;104029;-53
2021/12/29 03:40:49;;;;;;;;;;;;;;;9.27;65.81;100898.22;5043361;27;102278;-53
2021/12/29 03:43:17;;;;;;;11.65;8.18;;;;;;;9.27;65.94;100897.41;5047239;27;102581;-53
2021/12/29 03:45:45;;;;;;;9.90;8.70;;;;;;;9.28;66.09;100899.84;5047558;27;102158;-53
2021/12/29 03:48:14;;;;;;;11.63;9.10;;;;;;;9.27;66.22;100900.94;5045191;27;107958;-52
2021/12/29 03:50:41;;;;;;;10.15;8.13;;;;;;;9.28;65.90;100896.31;5028946;27;102608;-52
2021/12/29 03:53:08;;;;;;;9.93;8.15;;;;;;;9.27;65.58;100897.41;5042480;27;103534;-52
2021/12/29 03:55:35;;;;;;;12.63;8.82;;;;;;;9.27;65.24;100898.22;5037944;27;102429;-53
2021/12/29 03:58:03;;;;;;;11.85;9.77;;;;;;;9.27;65.65;100897.41;5043048;27;105409;-53
2021/12/29 04:00:31;;;;;;;11.30;8.80;;;;;;;9.27;66.15;100898.22;5045505;27;102233;-53
2021/12/29 04:02:58;;;;;;;11.35;8.70;;;;;;;9.28;66.16;100899.03;5038565;27;103890;-53
2021/12/29 04:05:25;;;;;;;11.88;8.82;;;;;;;9.27;65.69;100898.22;5044509;27;103541;-52
2021/12/29 04:07:53;;;;;;;10.00;8.23;;;;;;;9.26;65.40;100896.56;5033894;27;104228;-53
2021/12/29 04:10:20;;;;;;;10.90;8.82;;;;;;;9.27;65.51;100900.94;5049039;27;102719;-53
2021/12/29 04:12:47;;;;;;;10.88;8.30;;;;;;;9.27;65.65;100894.69;5047306;27;102546;-53
2021/12/29 04:15:15;;;;;;;11.13;9.15;;;;;;;9.27;65.69;100903.66;5041973;27;102945;-53
2021/12/29 04:17:44;;;;;;;11.80;9.07;;;;;;;9.28;65.60;100915.34;5045783;27;103960;-53
2021/12/29 04:22:58;;;;;;;12.38;9.48;;;;;;;9.26;65.31;100915.56;5045209;27;103919;-53
2021/12/29 04:25:26;;;;;;;12.80;10.20;;;;;;;9.27;66.04;100922.66;5047172;27;102242;-53
2021/12/29 04:27:53;;;;;;;14.10;11.43;;;;;;;9.27;66.11;100925.38;5038066;27;103969;-53
2021/12/29 04:30:20;;;;;;;12.75;10.70;;;;;;;9.27;65.43;100919.97;5029439;27;102396;-53
2021/12/29 04:32:50;;;;;;;12.93;9.98;;;;;;;9.27;66.21;100925.38;5044321;27;103141;-53
2021/12/29 04:35:16;;;;;;;13.02;10.43;;;;;;;9.27;65.25;100928.09;5046936;27;102156;-53
2021/12/29 04:37:43;;;;;;;12.90;10.25;;;;;;;9.26;65.93;100918.28;5045262;27;103906;-53
2021/12/29 04:40:10;;;;;;;12.15;10.25;;;;;;;9.26;65.27;100926.44;5030099;27;102613;-53
2021/12/29 04:42:37;;;;;;;11.45;9.68;;;;;;;9.27;65.76;100919.97;5046950;27;102547;-53
2021/12/29 04:45:05;;;;;;;13.18;10.07;;;;;;;9.27;65.73;100933.53;5028603;27;104357;-53
2021/12/29 04:47:32;;;;;;;12.50;10.57;;;;;;;9.27;65.92;100922.66;5042080;27;103950;-53
2021/12/29 04:50:02;;;;;;;12.82;10.02;;;;;;;9.27;66.30;100940.88;5018340;27;102227;-53
2021/12/29 04:52:30;;;;;;;11.80;9.93;;;;;;;9.27;65.69;100949.81;5028890;27;104036;-53
2021/12/29 04:54:56;;;;;;;12.40;10.65;;;;;;;9.29;65.32;100955.00;5019637;28;102192;-53
2021/12/29 04:57:23;;;;;;;12.82;9.73;;;;;;;9.27;66.21;100963.41;5025153;27;104106;-53
2021/12/29 04:59:50;;;;;;;14.07;10.48;;;;;;;9.27;65.29;100955.25;5021547;27;102231;-53
2021/12/29 05:02:17;;;;;;;13.65;10.45;;;;;;;9.28;66.18;100962.31;5017489;27;102530;-53
2021/12/29 05:04:56;;;;;;;12.48;9.77;;;;;;;9.27;65.40;100974.28;5029062;27;102185;-53
2021/12/29 05:10:09;;;;;;;13.05;9.77;;;;;;;9.27;65.81;100974.28;5014482;28;102228;-52
2021/12/29 05:12:35;;;;;;;13.77;10.52;;;;;;;9.27;65.93;100979.69;5028243;27;102536;-53
2021/12/29 05:15:02;;;;;;;13.25;10.23;;;;;;;9.27;65.86;100979.69;5026337;27;102177;-53
2021/12/29 05:17:29;;;;;;;11.90;9.82;;;;;;;9.28;66.30;100986.75;5025149;28;103822;-53
2021/12/29 05:19:55;;;;;;;11.90;10.00;;;;;;;9.26;66.30;100983.47;5026498;27;102839;-53
2021/12/29 05:22:24;;;;;;;12.25;9.93;;;;;;;9.28;65.43;100980.53;5017079;27;102226;-53
2021/12/29 05:24:50;;;;;;;12.55;10.52;;;;;;;9.27;66.21;100979.69;5017334;28;102738;-53
2021/12/29 05:27:17;;;;;;;10.68;9.20;;;;;;;9.28;65.55;100986.75;5015958;28;105632;-53
2021/12/29 05:29:43;;;;;;;12.43;10.30;;;;;;;9.28;65.45;100980.53;5013121;27;103718;-52
2021/12/29 05:32:10;;;;;;;12.70;9.85;;;;;;;9.28;65.39;100986.75;5017777;28;102076;-53
2021/12/29 05:34:37;;;;;;;11.50;9.45;;;;;;;9.28;65.31;100977.81;5019832;28;102597;-53
2021/12/29 05:37:04;;;;;;;12.83;9.93;;;;;;;9.28;66.07;100980.53;5019044;27;103719;-53
2021/12/29 05:39:33;;;;;;;11.68;9.18;;;;;;;9.27;66.00;100974.28;5021160;27;102060;-53
2021/12/29 05:41:59;;;;;;;12.32;10.05;;;;;;;9.28;66.35;100965.03;5013433;27;102717;-53
2021/12/29 05:44:26;;;;;;;11.88;9.60;;;;;;;9.27;65.89;100974.28;5028732;27;102644;-53
2021/12/29 05:46:52;;;;;;;12.55;10.23;;;;;;;9.28;66.25;100984.06;5018731;27;104061;-53
2021/12/29 05:49:18;;;;;;;11.02;9.32;;;;;;;9.27;66.21;100976.97;5022501;27;102310;-53
2021/12/29 05:51:46;;;;;;;11.80;9.55;;;;;;;9.28;66.26;100981.34;5015913;27;104298;-53
2021/12/29 05:54:13;;;;;;;11.85;9.70;;;;;;;9.27;65.78;100974.28;5018819;27;102585;-53
2021/12/29 05:56:41;;;;;;;11.73;9.40;;;;;;;9.28;65.91;100986.75;5037725;27;103508;-53
2021/12/29 05:59:07;;;;;;;12.77;9.27;;;;;;;9.28;65.43;100980.53;5036206;27;102327;-53
2021/12/29 06:01:35;;;;;;;12.10;9.45;;;;;;;9.28;66.09;100984.06;5037287;27;102231;-53
2021/12/29 06:04:01;;;;;;;11.10;9.07;;;;;;;9.28;65.88;100986.75;5038208;27;102114;-53
2021/12/29 06:06:29;;;;;;;11.95;9.35;;;;;;;9.29;66.01;100984.88;5040053;27;104079;-53
2021/12/29 06:08:56;;;;;;;11.90;8.88;;;;;;;9.28;66.16;100984.06;5039941;27;102204;-53
2021/12/29 06:11:22;;;;;;;10.52;8.68;;;;;;;9.28;65.51;100989.47;5033837;27;102586;-53
2021/12/29 06:13:50;;;;;;;11.50;9.20;;;;;;;9.29;65.70;100982.97;5038014;27;102332;-53
2021/12/29 06:16:17;;;;;;;10.15;8.82;;;;;;;9.28;65.46;100992.19;5037698;27;104283;-53
2021/12/29 06:18:46;;;;;;;11.73;9.65;;;;;;;9.29;65.77;101001.97;5034889;27;104151;-53
2021/12/29 06:21:16;;;;;;;13.65;10.02;;;;;;;9.29;66.19;100999.25;5003633;27;103637;-53
2021/12/29 06:23:48;;;;;;;10.75;8.70;;;;;;;9.28;66.29;101000.34;5046032;27;103005;-53
2021/12/29 06:26:15;;;;;;;11.75;9.50;;;;;;;9.29;65.92;101004.69;5028591;27;103956;-53
2021/12/29 06:28:43;;;;;;;11.98;9.60;;;;;;;9.29;65.71;101001.97;5036027;27;102796;-52
2021/12/29 06:31:13;;;;;;;11.95;9.35;;;;;;;9.29;65.74;101001.97;5034043;27;102105;-53
2021/12/29 06:33:40;;;;;;;11.50;9.90;;;;;;;9.29;66.38;100999.25;5037694;27;102400;-53
2021/12/29 06:36:07;;;;;;;10.95;9.45;;;;;;;9.29;65.91;100993.81;5043431;27;103605;-53
2021/12/29 06:38:34;;;;;;;10.73;9.35;;;;;;;9.29;65.63;100999.25;5023072;27;102234;-53
2021/12/29 06:41:02;;;;;;;11.90;9.43;;;;;;;9.29;66.13;100988.41;5024789;27;102256;-53
2021/12/29 06:43:28;;;;;;;12.25;9.73;;;;;;;9.30;66.11;100995.47;5020898;27;102169;-53
2021/12/29 06:45:55;;;;;;;11.98;9.25;;;;;;;9.31;66.40;100996.31;5041849;27;104982;-53
2021/12/29 06:48:23;;;;;;;12.02;9.75;;;;;;;9.30;66.34;100995.47;5032334;27;102518;-53
2021/12/29 06:50:49;;;;;;;11.43;9.07;;;;;;;9.30;66.02;100998.19;5037919;27;102573;-53
2021/12/29 06:53:16;;;;;;;13.15;9.82;;;;;;;9.30;65.64;101006.31;5036507;27;103494;-52
2021/12/29 06:55:43;;;;;;;11.95;9.50;;;;;;;9.31;66.04;101002.56;5018547;27;103938;-53
2021/12/29 06:58:10;;;;;;;11.75;9.40;;;;;;;9.30;65.86;101002.78;5043603;27;104347;-53
2021/12/29 07:00:36;;;;;;;12.38;10.00;;;;;;;9.31;66.14;101015.31;5018386;27;102232;-54
2021/12/29 07:03:03;;;;;;;11.45;9.52;;;;;;;9.30;66.08;101014.47;5015876;27;105321;-53
2021/12/29 07:05:32;;;;;;;12.05;9.13;;;;;;;9.30;65.53;101011.75;5038414;27;103353;-53
2021/12/29 07:07:59;;;;;;;12.73;9.80;;;;;;;9.30;65.58;101022.63;5022040;27;102795;-53
2021/12/29 07:10:27;;;;;;;13.23;9.97;;;;;;;9.30;66.42;101022.63;5022310;27;102783;-53
2021/12/29 07:12:55;;;;;;;11.15;9.55;;;;;;;9.31;65.63;101018.84;5037085;27;102595;-53
2021/12/29 07:15:21;;;;;;;11.90;9.30;;;;;;;9.30;66.13;101021.81;5027333;27;104090;-53
2021/12/29 07:17:49;;;;;;;11.38;9.18;;;;;;;9.31;65.62;101029.72;5016202;27;102426;-53
2021/12/29 07:20:16;;;;;;;13.57;10.63;;;;;;;9.31;65.70;101020.75;5038919;27;102482;-53
2021/12/29 07:22:44;;;;;;;12.35;9.60;;;;;;;9.30;66.05;101014.47;5040318;27;102526;-53
2021/12/29 07:25:11;;;;;;;12.57;9.32;;;;;;;9.30;66.39;101017.19;5041579;27;103925;-53
2021/12/29 07:27:37;;;;;;;12.57;9.50;;;;;;;9.30;66.38;101032.66;5028240;27;103824;-51
2021/12/29 07:30:06;;;;;;;17.20;10.73;;;;;;;9.29;65.60;101025.59;5033388;27;102431;-51
2021/12/29 07:32:33;;;;;;;15.98;10.15;;;;;;;9.13;63.68;101016.47;5013669;27;102750;-51
2021/12/29 07:34:59;;;;;;;16.40;11.23;;;;;;;9.01;64.28;101011.16;5037183;27;104082;-52
2021/12/29 07:37:26;;;;;;;15.65;10.32;;;;;;;9.03;64.82;101010.94;5014331;27;104246;-52
2021/12/29 07:39:53;;;;;;;15.13;10.38;;;;;;;9.08;65.72;101019.13;5036569;27;104337;-52
2021/12/29 07:42:20;;;;;;;15.68;10.65;;;;;;;9.08;65.56;101019.94;5043084;27;102737;-51
2021/12/29 07:44:48;;;;;;;15.10;10.02;;;;;;;9.09;65.74;101023.50;5024072;27;103906;-52
2021/12/29 07:47:14;;;;;;;15.77;10.73;;;;;;;9.08;65.04;101024.56;5025914;27;102309;-52
2021/12/29 07:49:40;;;;;;;13.35;9.68;;;;;;;9.06;64.94;101018.56;5038512;27;102444;-52
2021/12/29 07:52:08;;;;;;;13.90;10.27;;;;;;;9.07;65.02;101017.50;5044397;27;102544;-52
2021/12/29 07:54:34;;;;;;;14.18;10.23;;;;;;;9.05;64.55;101006.91;5020631;27;104349;-52
2021/12/29 07:57:02;;;;;;;13.57;10.82;;;;;;;9.05;64.94;101008.75;5043191;27;102621;-52
2021/12/29 07:59:29;;;;;;;15.98;10.43;;;;;;;9.05;64.52;101014.19;5046576;27;103355;-53
2021/12/29 08:01:56;;;;;;;14.45;10.50;;;;;;;9.03;65.30;101008.22;5048634;27;103215;-52
2021/12/29 08:04:22;;;;;;;21.17;11.05;;;;;;;9.05;65.07;101003.34;5043403;27;107989;-52
2021/12/29 08:06:49;;;;;;;18.83;11.85;;;;;;;9.03;64.86;100997.34;5040752;27;102118;-51
2021/12/29 08:09:16;;;;;;;16.92;10.65;;;;;;;9.03;64.42;101005.50;5042986;27;103755;-51
2021/12/29 08:11:43;;;;;;;26.05;11.10;;;;;;;9.03;65.04;101000.06;5047393;27;102730;-51
2021/12/29 08:14:11;;;;;;;16.17;10.73;;;;;;;9.02;65.61;101009.28;5042820;27;103980;-52
2021/12/29 08:16:38;;;;;;;17.17;10.57;;;;;;;9.02;64.71;101009.28;5039840;27;102066;-52
2021/12/29 08:19:05;;;;;;;15.25;9.73;;;;;;;9.04;65.36;101007.13;5040751;27;102007;-52
2021/12/29 08:21:33;;;;;;;18.00;10.80;;;;;;;9.04;65.32;101007.13;5041444;27;102763;-52
2021/12/29 08:24:00;;;;;;;21.08;10.25;;;;;;;9.04;64.98;101001.69;5018287;27;104005;-52
2021/12/29 08:26:26;;;;;;;20.58;10.82;;;;;;;9.04;65.46;101001.69;5042602;27;102589;-52
2021/12/29 08:28:57;;;;;;;21.17;10.73;;;;;;;9.04;65.05;100996.28;5049856;27;105089;-52
2021/12/29 08:31:25;;;;;;;19.05;10.40;;;;;;;9.05;64.55;100989.75;5040217;27;102100;-53
2021/12/29 08:33:52;;;;;;;21.63;11.95;;;;;;;9.06;65.23;100996.84;5043353;27;104086;-54
2021/12/29 08:36:18;;;;;;;16.33;10.10;;;;;;;9.06;65.09;100994.13;5037776;27;102497;-54
2021/12/29 08:38:44;;;;;;;21.50;10.48;;;;;;;9.07;64.63;100996.59;5045160;27;102756;-54
2021/12/29 08:41:12;;;;;;;18.45;10.30;;;;;;;9.08;65.04;100997.41;5050439;27;102798;-54
2021/12/29 08:43:39;;;;;;;19.77;10.38;;;;;;;9.07;65.01;100998.47;5034920;27;103878;-55
2021/12/29 08:46:05;;;;;;;16.10;10.35;;;;;;;9.09;65.29;100996.34;5024359;27;102089;-54
2021/12/29 08:48:33;;;;;;;17.60;11.10;;;;;;;9.08;64.67;100991.97;5044773;27;102147;-54
2021/12/29 08:51:00;;;;;;;16.77;10.18;;;;;;;9.09;65.57;100994.44;5023426;28;102432;-54
2021/12/29 08:53:27;;;;;;;14.60;10.02;;;;;;;9.09;65.00;100988.19;5018793;28;103702;-55
2021/12/29 08:55:56;;;;;;;17.27;10.63;;;;;;;9.12;64.85;100998.53;5020965;27;102463;-54
2021/12/29 08:58:26;;;;;;;13.23;9.93;;;;;;;9.10;65.57;100987.13;5019922;27;104004;-55
2021/12/29 09:00:53;;;;;;;14.93;10.35;;;;;;;9.12;64.79;100998.53;5023694;27;102568;-54
2021/12/29 09:03:20;;;;;;;14.48;10.13;;;;;;;9.12;65.28;100998.53;5023407;27;104860;-54
2021/12/29 09:05:48;;;;;;;13.98;9.35;;;;;;;9.12;65.15;100999.38;5018472;28;102239;-54
2021/12/29 09:08:15;;;;;;;15.43;10.45;;;;;;;9.13;65.27;101005.63;5020295;28;102132;-54
2021/12/29 09:10:42;;;;;;;16.20;9.98;;;;;;;9.14;65.43;100996.38;5019800;28;102179;-54
2021/12/29 09:13:09;;;;;;;14.50;10.07;;;;;;;9.14;65.70;100993.69;5017339;28;103916;-54
2021/12/29 09:15:35;;;;;;;18.08;9.77;;;;;;;9.15;65.28;100992.59;5023846;27;102118;-53
2021/12/29 09:18:03;;;;;;;16.73;9.65;;;;;;;9.15;65.17;100987.16;5025272;28;102137;-54
2021/12/29 09:20:33;;;;;;;18.13;9.48;;;;;;;9.17;65.24;100990.47;5022345;27;103650;-54
2021/12/29 09:23:01;;;;;;;;;;;;;;;9.17;64.85;100990.47;5025779;27;104204;-54
2021/12/29 09:25:28;;;;;;;15.05;9.18;;;;;;;9.18;65.74;100994.81;5028210;27;102438;-54
2021/12/29 09:27:55;;;;;;;15.93;9.60;;;;;;;9.18;65.26;101002.13;5017952;28;102238;-54
2021/12/29 09:30:25;;;;;;;17.35;10.13;;;;;;;9.19;65.13;101009.19;5024119;27;102339;-54
2021/12/29 09:32:52;;;;;;;18.60;10.10;;;;;;;9.19;65.48;101001.03;5029190;27;102367;-54
2021/12/29 09:35:20;;;;;;;14.73;9.38;;;;;;;9.19;64.99;100998.34;5021348;27;102287;-54
2021/12/29 09:37:47;;;;;;;12.82;9.38;;;;;;;9.18;65.11;100997.50;5019728;27;104364;-54
2021/12/29 09:40:17;;;;;;;12.88;9.18;;;;;;;9.19;65.34;100988.28;5031637;27;103057;-54
2021/12/29 09:42:45;;;;;;;14.32;9.60;;;;;;;9.19;65.69;100982.84;5028243;28;104104;-55
2021/12/29 09:45:13;;;;;;;13.07;10.02;;;;;;;9.20;65.27;100984.50;5023734;28;102130;-55
2021/12/29 09:47:40;;;;;;;14.13;8.73;;;;;;;9.20;65.35;100989.94;5017965;27;102221;-55
2021/12/29 09:50:10;;;;;;;14.80;9.43;;;;;;;9.20;65.37;100981.81;5031489;27;102530;-54
2021/12/29 09:52:41;;;;;;;12.90;9.27;;;;;;;9.22;64.87;100981.53;5029651;27;104755;-55
2021/12/29 09:55:12;;;;;;;13.18;8.82;;;;;;;9.21;65.47;100978.00;5041686;27;102732;-55
2021/12/29 09:57:45;;;;;;;11.88;9.13;;;;;;;9.22;65.08;100982.34;5036663;27;103752;-55
2021/12/29 10:00:20;;;;;;;18.02;10.15;;;;;;;9.23;65.38;100980.44;5027875;27;102422;-54
2021/12/29 10:02:47;;;;;;;15.82;9.18;;;;;;;9.23;65.83;100988.59;5037946;27;105231;-54
2021/12/29 10:05:14;;;;;;;13.35;9.23;;;;;;;9.22;65.06;100963.34;5018654;27;102076;-53
2021/12/29 10:07:40;;;;;;;13.82;9.30;;;;;;;9.23;65.29;100965.00;5021239;27;102240;-54
2021/12/29 10:10:16;;;;;;;12.48;8.98;;;;;;;9.23;65.18;100973.16;5027239;27;102182;-54
2021/12/29 10:12:45;;;;;;;18.60;9.55;;;;;;;9.23;65.30;100965.00;5026670;27;103737;-54
2021/12/29 10:15:13;;;;;;;13.98;9.20;;;;;;;9.25;65.22;100965.53;5042115;27;106022;-54
2021/12/29 10:17:40;;;;;;;15.35;9.60;;;;;;;9.25;65.64;100970.16;5034939;27;102364;-54
2021/12/29 10:20:09;;;;;;;15.40;9.60;;;;;;;9.25;65.77;100970.97;5036534;27;103351;-54
2021/12/29 10:22:40;;;;;;;13.68;9.00;;;;;;;9.26;65.66;100982.66;5040375;27;104078;-54
2021/12/29 10:25:09;;;;;;;14.80;9.10;;;;;;;9.26;65.22;100971.78;5043767;27;102314;-54
2021/12/29 10:27:37;;;;;;;12.48;9.40;;;;;;;9.26;65.11;100972.59;5039396;27;102729;-54
2021/12/29 10:30:18;;;;;;;12.25;8.95;;;;;;;9.27;65.07;100970.75;5036164;27;102535;-54
2021/12/29 10:32:45;;;;;;;13.43;9.15;;;;;;;9.27;65.60;100973.47;5038695;27;104058;-55
2021/12/29 10:35:20;;;;;;;12.27;8.95;;;;;;;9.26;65.91;100967.19;5036136;27;102478;-55
2021/12/29 10:37:47;;;;;;;13.00;9.27;;;;;;;9.26;65.23;100961.75;5035092;27;102378;-55
2021/12/29 10:40:24;;;;;;;12.70;8.82;;;;;;;9.28;65.18;100964.22;5039527;27;103096;-54
2021/12/29 10:42:56;;;;;;;11.60;8.93;;;;;;;9.27;65.55;100955.25;5026729;27;103657;-55
2021/12/29 10:45:33;;;;;;;11.05;9.10;;;;;;;9.27;65.81;100952.53;5044362;27;102890;-55
2021/12/29 10:48:00;;;;;;;13.38;9.63;;;;;;;9.28;65.24;100948.75;5041297;27;103557;-55
2021/12/29 10:50:27;;;;;;;14.95;9.35;;;;;;;9.28;65.69;100948.75;5042703;27;103761;-55
2021/12/29 10:52:57;;;;;;;12.00;9.02;;;;;;;9.28;65.13;100943.31;5037880;27;104596;-55
2021/12/29 10:55:31;;;;;;;11.32;8.45;;;;;;;9.29;65.64;100938.69;5036187;27;104379;-55
2021/12/29 10:58:05;;;;;;;12.50;8.45;;;;;;;9.29;65.61;100944.13;5037740;27;103626;-55
2021/12/29 11:00:34;;;;;;;12.95;8.48;;;;;;;9.29;65.70;100939.50;5048352;27;102618;-55
2021/12/29 11:03:11;;;;;;;14.07;8.80;;;;;;;9.29;65.50;100942.22;5041770;27;103956;-55
2021/12/29 11:05:39;;;;;;;11.25;8.65;;;;;;;9.29;65.62;100939.50;5041059;27;102433;-53
2021/12/29 11:08:07;;;;;;;12.02;8.27;;;;;;;9.29;65.33;100936.78;5026422;27;102551;-55
2021/12/29 11:10:35;;;;;;;11.75;8.75;;;;;;;9.30;65.56;100937.59;5043383;27;102315;-54
2021/12/29 11:13:01;;;;;;;14.18;9.55;;;;;;;9.30;65.72;100935.72;5049261;27;103885;-54
2021/12/29 11:15:32;;;;;;;11.60;8.80;;;;;;;9.31;65.52;100928.41;5031595;27;102387;-55
2021/12/29 11:18:04;;;;;;;11.48;8.65;;;;;;;9.30;65.61;100930.28;5046115;27;102247;-54
2021/12/29 11:20:32;;;;;;;14.18;9.13;;;;;;;9.30;65.45;100941.13;5047636;27;103676;-54
2021/12/29 11:23:09;;;;;;;10.93;8.68;;;;;;;9.31;65.47;100937.38;5047686;27;104350;-55
2021/12/29 11:25:38;;;;;;;13.82;8.90;;;;;;;9.31;65.24;100942.81;5019885;27;104168;-54
2021/12/29 11:28:05;;;;;;;11.80;8.65;;;;;;;9.30;66.07;100938.44;5022600;27;102525;-54